createdAt,value
2022-09-24T00:04:00.619Z,33.72
2022-09-24T00:06:03.495Z,25.05
2022-09-24T00:10:09.069Z,30.60
2022-09-24T00:12:13.348Z,27.70
2022-09-24T00:14:16.144Z,30.75
2022-09-24T00:18:21.585Z,23.35
2022-09-24T00:20:23.549Z,26.33
2022-09-24T00:22:25.490Z,34.05
2022-09-24T00:24:46.257Z,25.60
2022-09-24T00:26:51.254Z,22.88
2022-09-24T00:28:53.208Z,26.40
2022-09-24T00:30:58.410Z,29.13
2022-09-24T00:33:00.470Z,24.23
2022-09-24T00:35:03.061Z,23.13
2022-09-24T00:37:05.063Z,27.25
2022-09-24T00:39:07.231Z,26.65
2022-09-24T00:41:09.176Z,23.08
2022-09-24T00:43:35.164Z,23.10
2022-09-24T00:45:37.166Z,25.40
2022-09-24T00:47:42.256Z,25.83
2022-09-24T00:49:44.324Z,21.80
2022-09-24T00:51:50.044Z,21.65
2022-09-24T00:53:56.808Z,21.58
2022-09-24T00:55:59.480Z,24.52
2022-09-24T00:58:04.444Z,27.27
2022-09-24T01:00:08.153Z,25.55
2022-09-24T01:02:10.167Z,26.45
2022-09-24T01:04:12.295Z,25.90
2022-09-24T01:06:14.295Z,24.15
2022-09-24T01:08:17.690Z,30.00
2022-09-24T01:10:39.601Z,29.05
2022-09-24T01:12:52.568Z,28.65
2022-09-24T01:17:58.003Z,34.10
2022-09-24T01:20:21.618Z,29.73
2022-09-24T01:23:07.783Z,26.70
2022-09-24T01:25:39.866Z,28.98
2022-09-24T01:28:00.271Z,26.65
2022-09-24T01:30:06.197Z,25.25
2022-09-24T01:32:37.412Z,22.52
2022-09-24T01:34:52.681Z,27.90
2022-09-24T01:36:54.959Z,25.13
2022-09-24T01:38:58.614Z,21.83
2022-09-24T01:41:02.800Z,22.08
2022-09-24T01:43:05.146Z,23.00
2022-09-24T01:45:08.012Z,27.10
2022-09-24T01:49:12.178Z,29.15
2022-09-24T01:51:34.596Z,23.15
2022-09-24T01:53:44.719Z,20.93
2022-09-24T01:55:49.788Z,22.08
2022-09-24T01:58:09.220Z,23.02
2022-09-24T02:00:15.886Z,26.75
2022-09-24T02:02:28.858Z,21.48
2022-09-24T02:06:40.823Z,22.80
2022-09-24T02:08:47.066Z,24.23
2022-09-24T02:11:12.837Z,27.67
2022-09-24T02:13:14.933Z,27.00
2022-09-24T02:15:33.227Z,28.95
2022-09-24T02:17:36.620Z,26.58
2022-09-24T02:19:38.700Z,25.95
2022-09-24T02:21:40.658Z,29.77
2022-09-24T02:23:47.505Z,24.73
2022-09-24T02:25:53.770Z,23.33
2022-09-24T02:27:56.292Z,27.05
2022-09-24T02:29:58.917Z,27.33
2022-09-24T02:32:00.924Z,30.38
2022-09-24T02:34:22.804Z,32.90
2022-09-24T02:36:25.097Z,25.77
2022-09-24T02:38:27.190Z,33.25
2022-09-24T02:40:29.366Z,26.52
2022-09-24T02:42:31.519Z,27.85
2022-09-24T02:44:34.057Z,23.52
2022-09-24T02:46:36.062Z,29.77
2022-09-24T02:48:38.154Z,28.98
2022-09-24T02:50:40.121Z,30.17
2022-09-24T02:52:42.697Z,27.52
2022-09-24T02:54:45.155Z,26.92
2022-09-24T02:56:47.091Z,26.65
2022-09-24T02:58:49.535Z,27.43
2022-09-24T03:00:51.500Z,23.38
2022-09-24T03:02:54.069Z,29.30
2022-09-24T03:06:58.454Z,31.55
2022-09-24T03:09:02.343Z,26.40
2022-09-24T03:11:04.367Z,27.25
2022-09-24T03:13:06.921Z,33.50
2022-09-24T03:15:09.590Z,25.95
2022-09-24T03:17:11.893Z,24.83
2022-09-24T03:19:13.831Z,33.38
2022-09-24T03:21:18.666Z,27.05
2022-09-24T03:23:20.639Z,32.92
2022-09-24T03:25:22.742Z,26.92
2022-09-24T03:27:24.735Z,25.38
2022-09-24T03:29:45.518Z,32.78
2022-09-24T03:31:47.540Z,31.27
2022-09-24T03:33:49.988Z,37.15
2022-09-24T03:36:02.455Z,34.42
2022-09-24T03:38:04.398Z,27.63
2022-09-24T03:40:07.994Z,32.17
2022-09-24T03:42:10.758Z,60.15
2022-09-24T03:44:12.707Z,54.00
2022-09-24T03:46:16.178Z,49.03
2022-09-24T03:48:19.069Z,34.28
2022-09-24T03:50:21.049Z,33.22
2022-09-24T03:52:24.054Z,34.35
2022-09-24T03:54:26.006Z,26.52
2022-09-24T03:56:27.973Z,23.88
2022-09-24T03:58:31.297Z,29.23
2022-09-24T04:00:36.423Z,25.80
2022-09-24T04:02:43.089Z,29.23
2022-09-24T04:06:46.986Z,28.80
2022-09-24T04:08:48.930Z,30.27
2022-09-24T04:10:51.353Z,27.70
2022-09-24T04:12:53.480Z,31.88
2022-09-24T04:14:55.591Z,28.98
2022-09-24T04:16:59.000Z,23.63
2022-09-24T04:19:02.071Z,24.58
2022-09-24T04:21:04.159Z,22.83
2022-09-24T04:23:06.093Z,24.45
2022-09-24T04:25:14.018Z,26.02
2022-09-24T04:27:16.782Z,28.00
2022-09-24T04:29:18.744Z,29.52
2022-09-24T04:31:20.882Z,23.33
2022-09-24T04:33:22.896Z,27.13
2022-09-24T04:35:24.933Z,22.70
2022-09-24T04:37:26.890Z,28.95
2022-09-24T04:39:28.875Z,22.98
2022-09-24T04:41:30.845Z,26.45
2022-09-24T04:43:33.262Z,25.05
2022-09-24T04:45:35.276Z,30.38
2022-09-24T04:47:38.088Z,33.45
2022-09-24T04:51:42.429Z,24.52
2022-09-24T04:53:47.919Z,24.23
2022-09-24T04:55:50.072Z,22.70
2022-09-24T04:57:52.240Z,23.35
2022-09-24T04:59:54.211Z,26.20
2022-09-24T05:01:56.343Z,25.55
2022-09-24T05:03:58.387Z,26.95
2022-09-24T05:06:01.995Z,22.20
2022-09-24T05:08:04.879Z,29.83
2022-09-24T05:10:07.373Z,31.98
2022-09-24T05:12:09.303Z,29.42
2022-09-24T05:14:11.375Z,36.95
2022-09-24T05:16:13.420Z,28.65
2022-09-24T05:18:15.388Z,31.75
2022-09-24T05:20:17.413Z,32.92
2022-09-24T05:22:20.307Z,35.80
2022-09-24T05:24:22.346Z,40.50
2022-09-24T05:26:42.683Z,27.67
2022-09-24T05:28:44.616Z,30.63
2022-09-24T05:30:46.552Z,34.55
2022-09-24T05:32:52.054Z,29.77
2022-09-24T05:34:54.154Z,34.92
2022-09-24T05:36:56.284Z,30.67
2022-09-24T05:38:58.263Z,29.92
2022-09-24T05:41:00.339Z,26.70
2022-09-24T05:43:02.514Z,31.67
2022-09-24T05:45:06.526Z,31.40
2022-09-24T05:47:08.883Z,33.00
2022-09-24T05:49:10.890Z,27.10
2022-09-24T05:51:12.932Z,28.85
2022-09-24T05:53:14.884Z,28.63
2022-09-24T05:55:16.889Z,26.65
2022-09-24T05:57:19.746Z,26.60
2022-09-24T05:59:21.696Z,27.02
2022-09-24T06:01:24.888Z,34.22
2022-09-24T06:03:26.963Z,28.55
2022-09-24T06:05:29.044Z,28.58
2022-09-24T06:07:31.173Z,33.58
2022-09-24T06:09:33.220Z,31.25
2022-09-24T06:11:39.657Z,28.38
2022-09-24T06:13:42.325Z,31.35
2022-09-24T06:15:44.982Z,29.90
2022-09-24T06:19:49.284Z,26.48
2022-09-24T06:21:51.245Z,27.67
2022-09-24T06:23:53.264Z,38.22
2022-09-24T06:25:55.221Z,29.98
2022-09-24T06:28:01.755Z,31.70
2022-09-24T06:30:04.889Z,27.35
2022-09-24T06:32:08.348Z,31.77
2022-09-24T06:34:10.341Z,29.55
2022-09-24T06:36:12.334Z,29.60
2022-09-24T06:38:16.931Z,31.38
2022-09-24T06:40:18.909Z,29.02
2022-09-24T06:42:20.967Z,34.92
2022-09-24T06:44:22.946Z,29.98
2022-09-24T06:46:25.946Z,27.75
2022-09-24T06:48:28.546Z,28.88
2022-09-24T06:50:31.905Z,29.58
2022-09-24T06:52:33.844Z,28.65
2022-09-24T06:54:35.846Z,29.75
2022-09-24T06:56:37.786Z,31.60
2022-09-24T06:58:39.706Z,34.92
2022-09-24T07:00:43.084Z,30.20
2022-09-24T07:02:51.724Z,31.70
2022-09-24T07:04:53.701Z,32.05
2022-09-24T07:07:14.190Z,26.63
2022-09-24T07:09:16.144Z,29.70
2022-09-24T07:11:18.117Z,29.00
2022-09-24T07:13:21.394Z,28.95
2022-09-24T07:15:23.458Z,25.98
2022-09-24T07:17:29.985Z,27.58
2022-09-24T07:19:34.981Z,24.45
2022-09-24T07:21:37.590Z,27.23
2022-09-24T07:23:39.547Z,27.52
2022-09-24T07:25:41.582Z,31.88
2022-09-24T07:27:43.545Z,29.83
2022-09-24T07:29:45.552Z,29.85
2022-09-24T07:31:47.576Z,27.88
2022-09-24T07:33:49.583Z,26.30
2022-09-24T07:35:51.548Z,30.35
2022-09-24T07:38:07.298Z,31.60
2022-09-24T07:40:10.179Z,29.95
2022-09-24T07:42:12.222Z,28.30
2022-09-24T07:44:14.183Z,23.65
2022-09-24T07:46:16.214Z,30.60
2022-09-24T07:48:18.258Z,34.63
2022-09-24T07:50:20.200Z,27.23
2022-09-24T07:52:22.270Z,29.15
2022-09-24T07:54:24.265Z,33.47
2022-09-24T07:56:26.283Z,29.35
2022-09-24T07:58:28.312Z,30.27
2022-09-24T08:00:30.285Z,26.70
2022-09-24T08:02:32.268Z,28.52
2022-09-24T08:04:34.241Z,28.98
2022-09-24T08:06:39.519Z,27.08
2022-09-24T08:08:43.623Z,30.08
2022-09-24T08:10:45.708Z,32.00
2022-09-24T08:12:47.671Z,30.67
2022-09-24T08:14:49.727Z,26.98
2022-09-24T08:16:51.693Z,26.98
2022-09-24T08:18:54.283Z,31.02
2022-09-24T08:20:56.221Z,28.52
2022-09-24T08:23:05.379Z,34.17
2022-09-24T08:25:07.923Z,28.20
2022-09-24T08:27:13.741Z,28.70
2022-09-24T08:29:18.459Z,28.35
2022-09-24T08:31:20.497Z,30.60
2022-09-24T08:33:22.577Z,28.60
2022-09-24T08:35:24.709Z,27.77
2022-09-24T08:37:28.300Z,34.47
2022-09-24T08:39:30.480Z,29.15
2022-09-24T08:41:58.168Z,25.38
2022-09-24T08:44:07.755Z,30.08
2022-09-24T08:46:38.631Z,26.42
2022-09-24T08:48:43.059Z,30.38
2022-09-24T08:51:01.329Z,26.92
2022-09-24T08:53:13.829Z,28.25
2022-09-24T08:55:31.699Z,22.63
2022-09-24T08:57:40.441Z,24.00
2022-09-24T08:59:44.843Z,22.60
2022-09-24T09:02:35.523Z,22.40
2022-09-24T09:05:27.581Z,24.77
2022-09-24T09:07:35.306Z,20.42
2022-09-24T09:10:00.707Z,26.23
2022-09-24T09:12:05.861Z,24.25
2022-09-24T09:14:19.743Z,21.67
2022-09-24T09:16:53.809Z,20.35
2022-09-24T09:19:06.570Z,17.70
2022-09-24T09:21:43.290Z,19.83
2022-09-24T09:23:51.469Z,24.65
2022-09-24T09:25:56.671Z,24.23
2022-09-24T09:28:15.461Z,18.05
2022-09-24T09:30:20.767Z,29.67
2022-09-24T09:32:48.219Z,20.98
2022-09-24T09:34:59.205Z,17.95
2022-09-24T09:37:31.516Z,18.70
2022-09-24T09:40:00.095Z,18.75
2022-09-24T09:42:36.433Z,25.13
2022-09-24T09:44:42.616Z,21.85
2022-09-24T09:47:01.287Z,24.75
2022-09-24T09:49:06.199Z,20.90
2022-09-24T09:51:11.539Z,20.33
2022-09-24T09:53:32.700Z,18.20
2022-09-24T09:55:36.652Z,18.17
2022-09-24T09:57:38.708Z,17.77
2022-09-24T09:59:40.658Z,18.65
2022-09-24T10:01:43.975Z,22.90
2022-09-24T10:03:52.367Z,21.48
2022-09-24T10:06:05.805Z,18.25
2022-09-24T10:08:23.963Z,17.17
2022-09-24T10:10:29.120Z,20.50
2022-09-24T10:12:31.201Z,22.48
2022-09-24T10:14:33.554Z,25.60
2022-09-24T10:16:46.299Z,17.17
2022-09-24T10:18:50.024Z,19.50
2022-09-24T10:20:52.542Z,19.90
2022-09-24T10:23:01.169Z,16.35
2022-09-24T10:25:03.213Z,14.05
2022-09-24T10:27:17.612Z,16.20
2022-09-24T10:29:50.808Z,17.15
2022-09-24T10:31:52.735Z,17.25
2022-09-24T10:33:56.295Z,13.05
2022-09-24T10:36:07.762Z,20.88
2022-09-24T10:38:25.171Z,16.88
2022-09-24T10:40:38.308Z,14.85
2022-09-24T10:42:40.713Z,12.45
2022-09-24T10:44:42.668Z,13.52
2022-09-24T10:46:53.671Z,14.57
2022-09-24T10:49:05.294Z,11.90
2022-09-24T10:51:29.388Z,10.38
2022-09-24T10:53:56.680Z,10.85
2022-09-24T10:56:31.779Z,16.10
2022-09-24T10:59:07.885Z,14.13
2022-09-24T11:01:32.432Z,10.27
2022-09-24T11:04:21.006Z,9.15
2022-09-24T11:06:57.220Z,7.57
2022-09-24T11:09:23.707Z,6.43
2022-09-24T11:11:40.521Z,7.30
2022-09-24T11:14:26.683Z,10.73
2022-09-24T11:16:49.444Z,7.68
2022-09-24T11:19:04.439Z,6.70
2022-09-24T11:21:45.646Z,6.90
2022-09-24T11:24:11.357Z,5.22
2022-09-24T11:27:08.289Z,5.78
2022-09-24T11:29:36.872Z,4.65
2022-09-24T11:31:47.931Z,4.65
2022-09-24T11:33:59.817Z,4.55
2022-09-24T11:36:40.990Z,6.13
2022-09-24T11:39:09.746Z,6.60
2022-09-24T11:41:32.810Z,6.05
2022-09-24T11:44:06.240Z,8.07
2022-09-24T11:48:41.562Z,5.50
2022-09-24T11:50:56.273Z,4.43
2022-09-24T11:53:13.969Z,7.65
2022-09-24T11:55:34.844Z,7.70
2022-09-24T11:58:09.465Z,5.03
2022-09-24T12:00:19.947Z,5.05
2022-09-24T12:02:40.077Z,5.97
2022-09-24T12:05:12.443Z,5.95
2022-09-24T12:07:17.094Z,5.00
2022-09-24T12:09:37.203Z,4.50
2022-09-24T12:11:47.607Z,5.03
2022-09-24T12:14:26.793Z,3.60
2022-09-24T12:16:31.141Z,3.67
2022-09-24T12:18:43.196Z,2.92
2022-09-24T12:20:54.961Z,7.27
2022-09-24T12:23:07.945Z,3.63
2022-09-24T12:27:19.272Z,5.80
2022-09-24T12:29:59.239Z,3.60
2022-09-24T12:32:39.501Z,4.13
2022-09-24T12:34:48.128Z,6.13
2022-09-24T12:37:07.498Z,5.60
2022-09-24T12:39:12.312Z,6.22
2022-09-24T12:41:33.916Z,5.70
2022-09-24T12:44:06.514Z,6.80
2022-09-24T12:46:24.509Z,5.07
2022-09-24T12:48:26.527Z,7.82
2022-09-24T12:50:31.441Z,8.73
2022-09-24T12:52:41.927Z,5.47
2022-09-24T12:54:43.921Z,4.18
2022-09-24T12:56:45.900Z,3.78
2022-09-24T12:58:49.526Z,5.68
2022-09-24T13:00:53.593Z,5.57
2022-09-24T13:02:56.295Z,5.45
2022-09-24T13:05:01.420Z,6.28
2022-09-24T13:07:03.520Z,8.60
2022-09-24T13:09:35.098Z,4.13
2022-09-24T13:11:37.660Z,4.65
2022-09-24T13:13:44.891Z,6.15
2022-09-24T13:15:46.869Z,5.20
2022-09-24T13:17:49.164Z,3.95
2022-09-24T13:19:57.485Z,3.08
2022-09-24T13:21:59.900Z,4.22
2022-09-24T13:24:11.376Z,6.50
2022-09-24T13:26:34.057Z,11.05
2022-09-24T13:28:48.636Z,5.28
2022-09-24T13:31:03.602Z,7.00
2022-09-24T13:33:26.515Z,10.57
2022-09-24T13:35:33.804Z,3.75
2022-09-24T13:37:40.016Z,20.92
2022-09-24T13:39:53.259Z,5.10
2022-09-24T13:42:28.925Z,6.20
2022-09-24T13:44:37.480Z,5.00
2022-09-24T13:46:41.480Z,6.95
2022-09-24T13:48:56.168Z,5.68
2022-09-24T13:50:58.149Z,4.28
2022-09-24T13:53:28.865Z,4.50
2022-09-24T13:55:35.057Z,7.57
2022-09-24T13:57:44.778Z,3.10
2022-09-24T13:59:46.726Z,4.15
2022-09-24T14:01:48.798Z,3.33
2022-09-24T14:04:03.257Z,6.15
2022-09-24T14:06:18.106Z,4.20
2022-09-24T14:08:24.305Z,3.35
2022-09-24T14:10:26.264Z,3.92
2022-09-24T14:12:28.264Z,5.18
2022-09-24T14:14:30.950Z,3.90
2022-09-24T14:18:34.946Z,3.53
2022-09-24T14:20:36.918Z,4.22
2022-09-24T14:22:40.870Z,4.57
2022-09-24T14:25:02.699Z,4.50
2022-09-24T14:27:10.206Z,6.03
2022-09-24T14:29:17.221Z,4.28
2022-09-24T14:31:19.285Z,8.77
2022-09-24T14:33:26.233Z,5.20
2022-09-24T14:35:35.364Z,5.88
2022-09-24T14:37:41.113Z,6.63
2022-09-24T14:39:43.577Z,3.97
2022-09-24T14:41:45.554Z,4.32
2022-09-24T14:43:58.934Z,5.25
2022-09-24T14:46:28.097Z,4.20
2022-09-24T14:48:32.211Z,5.15
2022-09-24T14:50:41.675Z,4.97
2022-09-24T14:52:43.621Z,6.32
2022-09-24T14:54:45.598Z,4.60
2022-09-24T14:56:47.687Z,5.53
2022-09-24T14:58:49.663Z,4.90
2022-09-24T15:01:08.195Z,6.60
2022-09-24T15:03:20.701Z,5.95
2022-09-24T15:05:27.397Z,6.80
2022-09-24T15:07:30.653Z,6.65
2022-09-24T15:09:32.643Z,5.82
2022-09-24T15:11:37.236Z,6.07
2022-09-24T15:13:39.170Z,5.28
2022-09-24T15:15:41.279Z,4.95
2022-09-24T15:17:47.506Z,4.75
2022-09-24T15:19:54.353Z,6.10
2022-09-24T15:21:57.011Z,8.93
2022-09-24T15:23:59.014Z,5.20
2022-09-24T15:26:00.980Z,5.90
2022-09-24T15:28:02.932Z,7.55
2022-09-24T15:30:07.828Z,6.00
2022-09-24T15:32:19.944Z,7.00
2022-09-24T15:34:21.931Z,8.10
2022-09-24T15:36:23.989Z,6.53
2022-09-24T15:38:25.928Z,5.35
2022-09-24T15:40:31.157Z,6.68
2022-09-24T15:42:33.231Z,7.05
2022-09-24T15:44:35.180Z,8.13
2022-09-24T15:46:38.484Z,14.38
2022-09-24T15:48:40.547Z,8.68
2022-09-24T15:50:44.027Z,6.05
2022-09-24T15:52:58.135Z,11.10
2022-09-24T15:55:02.049Z,6.45
2022-09-24T15:57:04.432Z,7.45
2022-09-24T15:59:14.343Z,9.57
2022-09-24T16:01:19.495Z,7.15
2022-09-24T16:03:25.678Z,10.13
2022-09-24T16:05:27.888Z,7.68
2022-09-24T16:07:29.880Z,6.88
2022-09-24T16:09:31.864Z,6.88
2022-09-24T16:11:33.881Z,9.05
2022-09-24T16:13:35.825Z,10.50
2022-09-24T16:15:38.073Z,4.55
2022-09-24T16:17:40.389Z,5.90
2022-09-24T16:19:42.329Z,6.10
2022-09-24T16:21:44.286Z,7.22
2022-09-24T16:23:46.247Z,10.60
2022-09-24T16:25:56.654Z,8.23
2022-09-24T16:27:59.074Z,6.20
2022-09-24T16:30:02.253Z,7.57
2022-09-24T16:32:04.295Z,9.85
2022-09-24T16:34:06.293Z,10.65
2022-09-24T16:36:08.850Z,9.48
2022-09-24T16:38:10.900Z,14.35
2022-09-24T16:40:13.006Z,10.18
2022-09-24T16:42:15.013Z,11.90
2022-09-24T16:44:17.303Z,7.55
2022-09-24T16:46:20.853Z,13.40
2022-09-24T16:48:23.030Z,11.80
2022-09-24T16:50:25.254Z,11.90
2022-09-24T16:52:30.228Z,8.52
2022-09-24T16:54:32.806Z,12.63
2022-09-24T16:56:34.857Z,15.32
2022-09-24T16:58:36.964Z,11.25
2022-09-24T17:00:42.593Z,18.10
2022-09-24T17:02:44.583Z,10.77
2022-09-24T17:04:46.566Z,11.88
2022-09-24T17:06:48.538Z,14.57
2022-09-24T17:09:09.386Z,15.20
2022-09-24T17:11:11.474Z,11.95
2022-09-24T17:13:13.413Z,16.42
2022-09-24T17:15:16.914Z,15.70
2022-09-24T17:17:18.929Z,12.27
2022-09-24T17:19:20.916Z,11.40
2022-09-24T17:21:23.164Z,14.23
2022-09-24T17:23:25.139Z,17.67
2022-09-24T17:25:27.937Z,23.75
2022-09-24T17:27:31.988Z,17.33
2022-09-24T17:29:34.443Z,17.20
2022-09-24T17:31:36.463Z,14.20
2022-09-24T17:33:43.229Z,10.25
2022-09-24T17:35:54.692Z,13.43
2022-09-24T17:37:56.632Z,12.10
2022-09-24T17:39:58.819Z,11.70
2022-09-24T17:42:02.446Z,15.77
2022-09-24T17:44:04.408Z,12.27
2022-09-24T17:46:13.581Z,13.70
2022-09-24T17:48:16.240Z,11.63
2022-09-24T17:50:18.407Z,14.23
2022-09-24T17:52:20.740Z,15.88
2022-09-24T17:54:24.304Z,15.32
2022-09-24T17:56:28.322Z,15.50
2022-09-24T17:58:30.303Z,10.70
2022-09-24T18:00:32.392Z,14.27
2022-09-24T18:02:34.357Z,11.48
2022-09-24T18:04:38.398Z,13.10
2022-09-24T18:06:41.527Z,12.18
2022-09-24T18:08:44.714Z,9.65
2022-09-24T18:10:46.778Z,13.35
2022-09-24T18:12:48.780Z,16.55
2022-09-24T18:14:50.788Z,14.32
2022-09-24T18:16:52.925Z,14.90
2022-09-24T18:18:55.872Z,14.13
2022-09-24T18:21:02.006Z,16.75
2022-09-24T18:23:04.065Z,15.68
2022-09-24T18:25:07.355Z,15.60
2022-09-24T18:27:09.430Z,16.42
2022-09-24T18:29:15.840Z,15.95
2022-09-24T18:31:19.171Z,19.55
2022-09-24T18:33:21.292Z,22.33
2022-09-24T18:35:23.255Z,24.20
2022-09-24T18:37:25.287Z,26.08
2022-09-24T18:39:27.285Z,27.70
2022-09-24T18:41:29.855Z,29.42
2022-09-24T18:43:31.801Z,27.88
2022-09-24T18:45:34.766Z,23.23
2022-09-24T18:47:38.377Z,21.73
2022-09-24T18:49:43.352Z,19.38
2022-09-24T18:51:46.634Z,17.35
2022-09-24T18:53:53.075Z,14.27
2022-09-24T18:55:55.269Z,12.43
2022-09-24T18:57:57.581Z,14.43
2022-09-24T18:59:59.573Z,14.32
2022-09-24T19:02:02.619Z,16.33
2022-09-24T19:04:05.196Z,17.00
2022-09-24T19:06:08.320Z,13.35
2022-09-24T19:08:11.384Z,12.95
2022-09-24T19:10:13.378Z,12.60
2022-09-24T19:12:15.320Z,14.90
2022-09-24T19:14:18.561Z,19.80
2022-09-24T19:16:23.791Z,19.58
2022-09-24T19:18:26.396Z,17.10
2022-09-24T19:20:28.349Z,17.60
2022-09-24T19:22:30.330Z,18.55
2022-09-24T19:24:32.285Z,18.05
2022-09-24T19:26:35.275Z,18.92
2022-09-24T19:28:40.968Z,18.08
2022-09-24T19:30:44.791Z,18.33
2022-09-24T19:32:47.058Z,17.33
2022-09-24T19:34:49.616Z,20.20
2022-09-24T19:36:51.722Z,19.00
2022-09-24T19:38:53.668Z,17.20
2022-09-24T19:41:00.467Z,16.17
2022-09-24T19:43:03.178Z,17.20
2022-09-24T19:45:05.937Z,15.07
2022-09-24T19:49:10.309Z,16.00
2022-09-24T19:51:20.464Z,16.73
2022-09-24T19:53:22.456Z,19.02
2022-09-24T19:55:28.487Z,19.05
2022-09-24T19:57:33.554Z,17.30
2022-09-24T19:59:36.918Z,18.38
2022-09-24T20:01:38.987Z,16.67
2022-09-24T20:03:41.054Z,23.25
2022-09-24T20:05:43.720Z,18.45
2022-09-24T20:07:46.521Z,19.23
2022-09-24T20:09:48.532Z,20.77
2022-09-24T20:11:50.579Z,19.20
2022-09-24T20:13:54.442Z,21.13
2022-09-24T20:16:01.309Z,18.52
2022-09-24T20:18:03.387Z,17.65
2022-09-24T20:20:05.761Z,22.70
2022-09-24T20:22:08.969Z,21.63
2022-09-24T20:24:12.070Z,19.33
2022-09-24T20:26:33.955Z,21.88
2022-09-24T20:28:36.272Z,15.77
2022-09-24T20:30:38.309Z,17.23
2022-09-24T20:32:42.567Z,22.95
2022-09-24T20:34:44.527Z,18.33
2022-09-24T20:36:46.518Z,19.58
2022-09-24T20:38:48.679Z,19.02
2022-09-24T20:40:50.695Z,23.42
2022-09-24T20:42:52.755Z,25.15
2022-09-24T20:44:56.143Z,19.52
2022-09-24T20:46:58.278Z,24.63
2022-09-24T20:49:00.477Z,22.88
2022-09-24T20:51:11.679Z,25.70
2022-09-24T20:53:13.662Z,26.10
2022-09-24T20:55:15.740Z,23.58
2022-09-24T20:57:17.725Z,23.08
2022-09-24T20:59:19.844Z,24.52
2022-09-24T21:01:22.469Z,21.17
2022-09-24T21:05:46.207Z,19.83
2022-09-24T21:07:48.189Z,20.40
2022-09-24T21:09:50.190Z,18.00
2022-09-24T21:11:54.416Z,20.90
2022-09-24T21:14:00.927Z,16.48
2022-09-24T21:16:04.739Z,19.42
2022-09-24T21:18:22.157Z,16.05
2022-09-24T21:20:24.981Z,17.23
2022-09-24T21:22:27.165Z,15.85
2022-09-24T21:24:31.422Z,14.10
2022-09-24T21:26:36.297Z,19.52
2022-09-24T21:28:38.430Z,14.45
2022-09-24T21:30:40.465Z,16.10
2022-09-24T21:32:42.519Z,16.00
2022-09-24T21:34:45.432Z,16.65
2022-09-24T21:36:47.423Z,16.17
2022-09-24T21:39:00.446Z,16.23
2022-09-24T21:43:06.987Z,17.17
2022-09-24T21:45:10.119Z,16.02
2022-09-24T21:47:12.099Z,16.17
2022-09-24T21:49:14.298Z,14.65
2022-09-24T21:51:22.370Z,16.45
2022-09-24T21:53:24.341Z,16.13
2022-09-24T21:55:26.289Z,19.88
2022-09-24T21:57:28.264Z,15.80
2022-09-24T22:00:08.317Z,20.73
2022-09-24T22:02:12.350Z,18.65
2022-09-24T22:04:14.342Z,17.33
2022-09-24T22:06:16.348Z,16.15
2022-09-24T22:08:21.262Z,19.90
2022-09-24T22:10:23.991Z,16.73
2022-09-24T22:14:28.071Z,15.93
2022-09-24T22:16:31.774Z,21.20
2022-09-24T22:18:34.112Z,16.13
2022-09-24T22:20:42.768Z,16.67
2022-09-24T22:22:44.741Z,17.90
2022-09-24T22:24:46.778Z,19.52
2022-09-24T22:26:48.894Z,19.45
2022-09-24T22:28:50.851Z,19.80
2022-09-24T22:30:58.783Z,17.02
2022-09-24T22:33:00.824Z,16.33
2022-09-24T22:35:21.201Z,22.10
2022-09-24T22:37:23.171Z,20.52
2022-09-24T22:39:25.249Z,21.02
2022-09-24T22:41:30.806Z,16.77
2022-09-24T22:43:32.870Z,21.65
2022-09-24T22:45:35.046Z,21.55
2022-09-24T22:47:37.054Z,20.23
2022-09-24T22:49:39.295Z,14.82
2022-09-24T22:51:41.273Z,17.58
2022-09-24T22:53:43.235Z,20.85
2022-09-24T22:55:47.260Z,16.45
2022-09-24T22:57:52.436Z,19.88
2022-09-24T22:59:54.377Z,14.65
2022-09-24T23:01:56.379Z,18.90
2022-09-24T23:03:58.998Z,19.70
2022-09-24T23:06:01.041Z,13.68
2022-09-24T23:08:03.071Z,15.10
2022-09-24T23:10:06.573Z,16.52
2022-09-24T23:12:08.539Z,15.52
2022-09-24T23:14:15.149Z,15.55
2022-09-24T23:16:19.443Z,17.83
2022-09-24T23:18:21.466Z,16.45
2022-09-24T23:20:23.737Z,13.70
2022-09-24T23:22:25.735Z,16.88
2022-09-24T23:24:27.744Z,15.43
2022-09-24T23:26:29.861Z,16.42
2022-09-24T23:28:32.638Z,13.10
2022-09-24T23:32:36.517Z,16.38
2022-09-24T23:34:38.470Z,15.43
2022-09-24T23:36:40.494Z,17.70
2022-09-24T23:38:42.944Z,16.00
2022-09-24T23:40:45.105Z,19.55
2022-09-24T23:42:47.085Z,18.60
2022-09-24T23:44:49.471Z,18.42
2022-09-24T23:46:51.415Z,14.73
2022-09-24T23:48:53.348Z,15.52
2022-09-24T23:50:55.333Z,19.77
2022-09-24T23:52:57.284Z,20.38
2022-09-24T23:54:59.257Z,21.45
2022-09-24T23:57:01.998Z,18.23
